createdAt,value
2023-10-06T00:01:44.227Z,63.08
2023-10-06T00:04:14.404Z,63.14
2023-10-06T00:06:43.452Z,62.80
2023-10-06T00:09:11.096Z,62.88
2023-10-06T00:11:41.976Z,62.82
2023-10-06T00:14:09.567Z,62.82
2023-10-06T00:16:40.951Z,62.60
2023-10-06T00:19:26.569Z,62.36
2023-10-06T00:22:13.959Z,62.20
2023-10-06T00:24:44.309Z,62.11
2023-10-06T00:27:14.420Z,62.13
2023-10-06T00:29:48.980Z,61.94
2023-10-06T00:32:28.425Z,61.86
2023-10-06T00:35:13.276Z,61.69
2023-10-06T00:37:41.116Z,61.83
2023-10-06T00:40:12.580Z,61.69
2023-10-06T00:42:40.253Z,61.65
2023-10-06T00:45:10.193Z,61.53
2023-10-06T00:47:40.293Z,61.60
2023-10-06T00:50:13.802Z,61.68
2023-10-06T00:52:41.644Z,61.49
2023-10-06T00:55:13.223Z,61.28
2023-10-06T00:57:41.793Z,61.23
2023-10-06T01:00:22.065Z,61.12
2023-10-06T01:02:51.148Z,61.09
2023-10-06T01:05:20.358Z,61.13
2023-10-06T01:07:48.032Z,61.07
2023-10-06T01:10:19.849Z,60.98
2023-10-06T01:12:53.338Z,61.04
2023-10-06T01:15:21.828Z,61.08
2023-10-06T01:17:49.426Z,60.97
2023-10-06T01:20:34.133Z,60.84
2023-10-06T01:23:02.526Z,60.94
2023-10-06T01:25:36.389Z,60.75
2023-10-06T01:28:04.941Z,60.46
2023-10-06T01:30:32.255Z,60.23
2023-10-06T01:32:59.863Z,60.45
2023-10-06T01:35:28.234Z,60.33
2023-10-06T01:38:02.514Z,60.34
2023-10-06T01:40:30.402Z,60.30
2023-10-06T01:42:57.871Z,60.14
2023-10-06T01:45:25.733Z,60.04
2023-10-06T01:48:12.127Z,60.07
2023-10-06T01:50:41.135Z,60.01
2023-10-06T01:53:17.771Z,59.83
2023-10-06T01:55:45.076Z,59.95
2023-10-06T01:58:12.772Z,60.03
2023-10-06T02:00:40.550Z,59.94
2023-10-06T02:03:12.022Z,59.71
2023-10-06T02:05:42.097Z,59.80
2023-10-06T02:08:15.878Z,59.81
2023-10-06T02:10:44.587Z,59.69
2023-10-06T02:13:12.488Z,59.84
2023-10-06T02:15:39.736Z,59.39
2023-10-06T02:18:13.821Z,59.45
2023-10-06T02:20:42.729Z,59.39
2023-10-06T02:23:10.381Z,59.29
2023-10-06T02:25:37.650Z,59.59
2023-10-06T02:28:06.526Z,59.56
2023-10-06T02:30:38.932Z,59.34
2023-10-06T02:33:09.342Z,59.16
2023-10-06T02:35:37.561Z,59.04
2023-10-06T02:38:08.349Z,58.94
2023-10-06T02:40:45.148Z,58.85
2023-10-06T02:43:14.700Z,58.98
2023-10-06T02:45:42.183Z,58.92
2023-10-06T02:48:23.846Z,58.87
2023-10-06T02:50:56.477Z,58.97
2023-10-06T02:53:25.117Z,58.83
2023-10-06T02:55:57.333Z,58.92
2023-10-06T02:58:32.114Z,58.82
2023-10-06T03:00:59.759Z,58.99
2023-10-06T03:03:30.741Z,58.91
2023-10-06T03:05:59.489Z,58.97
2023-10-06T03:08:29.557Z,59.02
2023-10-06T03:10:57.319Z,59.04
2023-10-06T03:13:34.016Z,59.02
2023-10-06T03:16:02.891Z,58.91
2023-10-06T03:18:31.889Z,58.92
2023-10-06T03:21:02.921Z,58.76
2023-10-06T03:23:39.474Z,58.86
2023-10-06T03:26:33.393Z,58.84
2023-10-06T03:29:12.826Z,58.97
2023-10-06T03:31:46.556Z,59.14
2023-10-06T03:34:17.774Z,58.85
2023-10-06T03:36:53.448Z,58.93
2023-10-06T03:39:31.223Z,58.88
2023-10-06T03:42:05.234Z,58.95
2023-10-06T03:44:32.500Z,58.91
2023-10-06T03:47:03.138Z,59.08
2023-10-06T03:49:34.997Z,59.36
2023-10-06T03:52:04.458Z,59.16
2023-10-06T03:54:31.712Z,58.92
2023-10-06T03:56:59.430Z,58.89
2023-10-06T03:59:26.928Z,58.82
2023-10-06T04:01:54.139Z,59.01
2023-10-06T04:04:24.482Z,59.23
2023-10-06T04:06:51.776Z,59.22
2023-10-06T04:09:29.067Z,59.19
2023-10-06T04:11:58.484Z,59.31
2023-10-06T04:14:29.155Z,58.87
2023-10-06T04:16:57.314Z,58.75
2023-10-06T04:19:24.702Z,58.58
2023-10-06T04:21:52.040Z,58.53
2023-10-06T04:24:20.168Z,58.48
2023-10-06T04:26:47.258Z,58.56
2023-10-06T04:29:14.943Z,59.04
2023-10-06T04:31:42.329Z,58.86
2023-10-06T04:34:10.855Z,58.90
2023-10-06T04:36:39.260Z,58.99
2023-10-06T04:39:12.021Z,58.75
2023-10-06T04:41:42.377Z,58.40
2023-10-06T04:44:11.415Z,58.56
2023-10-06T04:46:38.787Z,58.52
2023-10-06T04:49:07.300Z,58.83
2023-10-06T04:51:35.676Z,58.71
2023-10-06T04:54:04.188Z,58.71
2023-10-06T04:56:33.939Z,58.63
2023-10-06T04:59:01.697Z,58.53
2023-10-06T05:01:32.583Z,58.63
2023-10-06T05:04:00.449Z,58.62
2023-10-06T05:06:27.747Z,58.64
2023-10-06T05:08:55.854Z,58.39
2023-10-06T05:11:25.039Z,58.50
2023-10-06T05:13:55.509Z,58.63
2023-10-06T05:16:24.908Z,58.65
2023-10-06T05:18:52.901Z,58.72
2023-10-06T05:21:21.775Z,58.59
2023-10-06T05:23:49.328Z,58.60
2023-10-06T05:26:17.558Z,58.71
2023-10-06T05:28:45.627Z,58.61
2023-10-06T05:31:13.644Z,58.40
2023-10-06T05:33:42.224Z,58.18
2023-10-06T05:36:11.498Z,58.20
2023-10-06T05:38:39.128Z,57.86
2023-10-06T05:41:13.563Z,58.04
2023-10-06T05:43:41.943Z,58.40
2023-10-06T05:46:10.920Z,58.56
2023-10-06T05:48:39.916Z,58.89
2023-10-06T05:51:11.089Z,59.18
2023-10-06T05:53:44.605Z,59.07
2023-10-06T05:56:13.243Z,59.23
2023-10-06T05:58:42.440Z,59.24
2023-10-06T06:01:20.399Z,58.96
2023-10-06T06:03:48.764Z,59.26
2023-10-06T06:06:17.414Z,59.21
2023-10-06T06:08:48.989Z,58.89
2023-10-06T06:11:17.714Z,58.86
2023-10-06T06:13:48.172Z,59.00
2023-10-06T06:16:18.395Z,58.67
2023-10-06T06:18:46.928Z,58.76
2023-10-06T06:21:17.806Z,58.41
2023-10-06T06:23:47.707Z,58.90
2023-10-06T06:26:18.566Z,58.55
2023-10-06T06:28:46.278Z,58.61
2023-10-06T06:31:20.425Z,58.33
2023-10-06T06:33:50.281Z,58.65
2023-10-06T06:36:20.154Z,58.45
2023-10-06T06:38:47.601Z,58.65
2023-10-06T06:41:14.880Z,58.37
2023-10-06T06:43:46.935Z,58.51
2023-10-06T06:46:14.661Z,58.70
2023-10-06T06:48:45.126Z,58.63
2023-10-06T06:51:13.114Z,58.78
2023-10-06T06:53:43.322Z,58.79
2023-10-06T06:56:12.165Z,59.11
2023-10-06T06:58:40.210Z,58.75
2023-10-06T07:01:16.375Z,58.19
2023-10-06T07:03:43.950Z,57.82
2023-10-06T07:06:17.555Z,58.59
2023-10-06T07:08:50.751Z,57.97
2023-10-06T07:11:18.356Z,57.73
2023-10-06T07:13:47.160Z,57.86
2023-10-06T07:16:15.839Z,57.78
2023-10-06T07:18:43.512Z,57.86
2023-10-06T07:21:11.449Z,57.83
2023-10-06T07:23:41.664Z,57.60
2023-10-06T07:26:12.493Z,57.24
2023-10-06T07:28:42.773Z,57.62
2023-10-06T07:31:14.676Z,57.67
2023-10-06T07:33:45.916Z,57.42
2023-10-06T07:36:14.876Z,57.52
2023-10-06T07:38:42.640Z,57.69
2023-10-06T07:41:11.469Z,57.98
2023-10-06T07:43:39.125Z,58.17
2023-10-06T07:46:09.197Z,57.50
2023-10-06T07:48:37.916Z,57.78
2023-10-06T07:51:07.497Z,57.90
2023-10-06T07:53:40.047Z,57.79
2023-10-06T07:56:10.109Z,57.58
2023-10-06T07:58:42.473Z,57.31
2023-10-06T08:01:10.326Z,56.93
2023-10-06T08:03:41.023Z,57.04
2023-10-06T08:06:17.964Z,56.82
2023-10-06T08:08:45.630Z,56.96
2023-10-06T08:11:14.573Z,57.26
2023-10-06T08:13:43.418Z,56.19
2023-10-06T08:16:13.452Z,56.06
2023-10-06T08:18:41.267Z,55.70
2023-10-06T08:21:08.474Z,55.56
2023-10-06T08:23:38.568Z,55.62
2023-10-06T08:26:10.394Z,54.98
2023-10-06T08:28:37.824Z,55.83
2023-10-06T08:31:05.532Z,55.95
2023-10-06T08:33:33.581Z,55.25
2023-10-06T08:36:03.140Z,55.67
2023-10-06T08:38:31.943Z,55.58
2023-10-06T08:41:02.883Z,55.91
2023-10-06T08:43:31.249Z,56.41
2023-10-06T08:46:01.882Z,55.78
2023-10-06T08:48:33.867Z,55.08
2023-10-06T08:51:04.817Z,55.00
2023-10-06T08:53:32.485Z,54.51
2023-10-06T08:56:00.431Z,53.97
2023-10-06T08:58:28.251Z,54.00
2023-10-06T09:00:57.216Z,53.89
2023-10-06T09:03:27.638Z,54.08
2023-10-06T09:05:55.524Z,53.68
2023-10-06T09:08:23.187Z,53.61
2023-10-06T09:10:52.015Z,53.98
2023-10-06T09:13:20.318Z,53.86
2023-10-06T09:16:04.223Z,53.77
2023-10-06T09:18:35.856Z,53.50
2023-10-06T09:21:17.539Z,53.77
2023-10-06T09:23:45.766Z,52.84
2023-10-06T09:26:17.141Z,53.01
2023-10-06T09:28:56.948Z,53.45
2023-10-06T09:31:45.774Z,52.76
2023-10-06T09:34:14.426Z,53.07
2023-10-06T09:36:46.164Z,52.62
2023-10-06T09:39:20.971Z,52.53
2023-10-06T09:41:49.318Z,53.20
2023-10-06T09:44:19.356Z,52.72
2023-10-06T09:46:47.273Z,52.47
2023-10-06T09:49:17.761Z,53.06
2023-10-06T09:51:45.104Z,52.86
2023-10-06T09:54:13.911Z,52.75
2023-10-06T09:56:42.182Z,52.27
2023-10-06T09:59:13.788Z,51.67
2023-10-06T10:01:47.136Z,51.29
2023-10-06T10:04:15.711Z,49.93
2023-10-06T10:06:46.594Z,50.01
2023-10-06T10:09:18.515Z,50.77
2023-10-06T10:11:51.533Z,51.31
2023-10-06T10:14:35.504Z,51.79
2023-10-06T10:17:19.847Z,51.33
2023-10-06T10:19:47.921Z,50.78
2023-10-06T10:22:17.520Z,50.27
2023-10-06T10:27:24.787Z,50.75
2023-10-06T10:29:52.918Z,50.83
2023-10-06T10:32:26.134Z,50.69
2023-10-06T10:35:15.911Z,50.13
2023-10-06T10:37:53.560Z,49.61
2023-10-06T10:40:23.161Z,50.15
2023-10-06T10:43:01.574Z,48.92
2023-10-06T10:45:38.218Z,49.23
2023-10-06T10:48:07.441Z,49.04
2023-10-06T10:51:12.107Z,48.84
2023-10-06T10:53:44.961Z,47.43
2023-10-06T10:56:27.637Z,48.35
2023-10-06T10:58:56.237Z,48.40
2023-10-06T11:01:46.611Z,46.86
2023-10-06T11:04:30.651Z,47.48
2023-10-06T11:07:02.693Z,47.08
2023-10-06T11:09:30.923Z,47.20
2023-10-06T11:14:39.805Z,48.43
2023-10-06T11:17:08.264Z,49.32
2023-10-06T11:19:38.131Z,49.28
2023-10-06T11:22:23.653Z,49.65
2023-10-06T11:24:52.042Z,48.74
2023-10-06T11:27:23.809Z,49.30
2023-10-06T11:29:54.559Z,49.91
2023-10-06T11:32:23.191Z,49.51
2023-10-06T11:34:53.647Z,49.10
2023-10-06T11:37:25.424Z,48.57
2023-10-06T11:39:54.153Z,48.42
2023-10-06T11:42:24.848Z,47.64
2023-10-06T11:44:57.882Z,47.88
2023-10-06T11:47:28.246Z,47.28
2023-10-06T11:49:56.759Z,46.90
2023-10-06T11:52:24.894Z,46.71
2023-10-06T11:54:52.990Z,46.07
2023-10-06T11:57:21.272Z,46.65
2023-10-06T11:59:52.489Z,46.99
2023-10-06T12:02:22.596Z,46.85
2023-10-06T12:04:49.998Z,47.35
2023-10-06T12:07:23.255Z,47.43
2023-10-06T12:09:50.524Z,46.90
2023-10-06T12:12:20.655Z,46.83
2023-10-06T12:14:48.958Z,46.85
2023-10-06T12:17:17.028Z,47.55
2023-10-06T12:19:44.597Z,47.17
2023-10-06T12:22:14.744Z,47.26
2023-10-06T12:24:45.063Z,46.69
2023-10-06T12:27:12.913Z,47.36
2023-10-06T12:29:40.553Z,46.32
2023-10-06T12:32:07.781Z,46.29
2023-10-06T12:34:35.091Z,46.36
2023-10-06T12:37:05.141Z,46.46
2023-10-06T12:39:35.852Z,46.30
2023-10-06T12:42:05.401Z,46.26
2023-10-06T12:44:32.782Z,45.62
2023-10-06T12:47:04.956Z,45.24
2023-10-06T12:49:32.555Z,44.99
2023-10-06T12:52:00.681Z,45.14
2023-10-06T12:54:28.694Z,45.33
2023-10-06T12:56:56.308Z,46.02
2023-10-06T12:59:23.788Z,45.71
2023-10-06T13:01:51.874Z,46.01
2023-10-06T13:04:19.415Z,45.05
2023-10-06T13:06:48.886Z,44.83
2023-10-06T13:09:22.964Z,45.64
2023-10-06T13:11:50.331Z,45.66
2023-10-06T13:14:19.772Z,46.07
2023-10-06T13:16:47.765Z,46.49
2023-10-06T13:19:15.356Z,46.95
2023-10-06T13:21:44.400Z,47.03
2023-10-06T13:24:14.032Z,46.79
2023-10-06T13:26:45.082Z,46.92
2023-10-06T13:29:12.862Z,46.96
2023-10-06T13:31:40.663Z,47.06
2023-10-06T13:34:09.281Z,47.30
2023-10-06T13:36:37.072Z,47.60
2023-10-06T13:39:10.322Z,47.58
2023-10-06T13:41:42.970Z,47.59
2023-10-06T13:44:11.075Z,48.21
2023-10-06T13:46:38.641Z,48.35
2023-10-06T13:49:06.810Z,48.37
2023-10-06T13:51:34.978Z,48.02
2023-10-06T13:54:04.686Z,47.97
2023-10-06T13:56:33.151Z,48.04
2023-10-06T13:59:01.181Z,48.43
2023-10-06T14:01:29.019Z,48.25
2023-10-06T14:03:57.684Z,48.50
2023-10-06T14:06:25.084Z,48.65
2023-10-06T14:08:54.319Z,48.64
2023-10-06T14:11:21.808Z,48.76
2023-10-06T14:13:51.238Z,49.09
2023-10-06T14:16:24.605Z,48.75
2023-10-06T14:18:54.534Z,48.91
2023-10-06T14:21:21.717Z,48.71
2023-10-06T14:23:50.788Z,48.76
2023-10-06T14:26:20.246Z,48.74
2023-10-06T14:28:48.681Z,48.57
2023-10-06T14:31:36.073Z,48.89
2023-10-06T14:34:21.782Z,49.20
2023-10-06T14:36:58.518Z,49.67
2023-10-06T14:39:44.871Z,50.20
2023-10-06T14:42:30.507Z,50.43
2023-10-06T14:45:16.332Z,50.45
2023-10-06T14:47:43.709Z,50.25
2023-10-06T14:50:14.691Z,50.61
2023-10-06T14:52:42.406Z,50.62
2023-10-06T14:55:10.682Z,50.61
2023-10-06T14:57:41.002Z,50.69
2023-10-06T15:00:09.807Z,50.74
2023-10-06T15:02:37.126Z,50.84
2023-10-06T15:05:05.546Z,50.76
2023-10-06T15:07:32.771Z,50.65
2023-10-06T15:10:00.053Z,50.60
2023-10-06T15:12:27.432Z,50.52
2023-10-06T15:14:55.272Z,50.46
2023-10-06T15:17:23.934Z,50.55
2023-10-06T15:19:51.703Z,50.87
2023-10-06T15:22:21.559Z,50.43
2023-10-06T15:24:48.887Z,50.35
2023-10-06T15:27:17.575Z,50.13
2023-10-06T15:29:45.095Z,50.08
2023-10-06T15:32:13.316Z,50.28
2023-10-06T15:34:40.856Z,50.23
2023-10-06T15:37:08.588Z,49.60
2023-10-06T15:39:42.311Z,49.50
2023-10-06T15:42:11.148Z,49.73
2023-10-06T15:44:38.895Z,49.67
2023-10-06T15:47:08.984Z,49.48
2023-10-06T15:49:38.566Z,49.54
2023-10-06T15:52:05.799Z,49.50
2023-10-06T15:54:33.815Z,49.54
2023-10-06T15:57:01.429Z,49.60
2023-10-06T15:59:31.227Z,49.68
2023-10-06T16:02:01.454Z,49.73
2023-10-06T16:04:28.749Z,49.66
2023-10-06T16:06:59.853Z,49.71
2023-10-06T16:09:27.808Z,49.71
2023-10-06T16:11:55.060Z,49.47
2023-10-06T16:14:22.619Z,49.31
2023-10-06T16:16:49.930Z,49.02
2023-10-06T16:19:18.696Z,48.76
2023-10-06T16:21:46.094Z,48.71
2023-10-06T16:24:15.492Z,48.49
2023-10-06T16:26:44.590Z,48.42
2023-10-06T16:29:13.735Z,48.41
2023-10-06T16:31:41.990Z,48.03
2023-10-06T16:34:10.054Z,47.94
2023-10-06T16:36:38.687Z,48.42
2023-10-06T16:39:17.836Z,48.13
2023-10-06T16:41:46.269Z,47.69
2023-10-06T16:44:14.545Z,47.60
2023-10-06T16:46:42.554Z,47.51
2023-10-06T16:49:10.567Z,47.13
2023-10-06T16:51:40.711Z,47.35
2023-10-06T16:54:10.836Z,47.13
2023-10-06T16:56:39.232Z,47.25
2023-10-06T16:59:07.502Z,47.13
2023-10-06T17:01:36.351Z,46.72
2023-10-06T17:04:07.576Z,46.67
2023-10-06T17:06:36.648Z,46.24
2023-10-06T17:09:15.076Z,46.37
2023-10-06T17:11:43.948Z,46.08
2023-10-06T17:14:14.071Z,46.27
2023-10-06T17:16:42.963Z,46.02
2023-10-06T17:19:13.302Z,46.24
2023-10-06T17:21:42.320Z,46.28
2023-10-06T17:24:12.103Z,46.08
2023-10-06T17:26:39.898Z,46.20
2023-10-06T17:29:59.179Z,46.63
2023-10-06T17:32:28.021Z,46.37
2023-10-06T17:34:55.628Z,46.13
2023-10-06T17:37:30.888Z,46.49
2023-10-06T17:39:58.879Z,46.75
2023-10-06T17:42:27.515Z,46.67
2023-10-06T17:44:55.105Z,46.39
2023-10-06T17:49:53.576Z,46.19
2023-10-06T17:52:22.329Z,46.80
2023-10-06T17:54:49.887Z,46.79
2023-10-06T17:57:17.635Z,46.41
2023-10-06T17:59:46.568Z,45.91
2023-10-06T18:02:37.205Z,46.37
2023-10-06T18:05:06.080Z,46.03
2023-10-06T18:07:33.541Z,45.92
2023-10-06T18:10:01.047Z,46.22
2023-10-06T18:13:19.367Z,46.03
2023-10-06T18:15:46.948Z,45.60
2023-10-06T18:18:14.211Z,45.63
2023-10-06T18:20:43.897Z,45.87
2023-10-06T18:23:14.498Z,45.98
2023-10-06T18:25:41.825Z,45.80
2023-10-06T18:28:09.517Z,45.86
2023-10-06T18:30:37.121Z,45.86
2023-10-06T18:33:05.535Z,45.80
2023-10-06T18:36:22.916Z,45.72
2023-10-06T18:41:50.487Z,45.84
2023-10-06T18:44:18.345Z,45.93
2023-10-06T18:46:46.631Z,45.86
2023-10-06T18:49:16.096Z,45.99
2023-10-06T18:51:45.058Z,45.98
2023-10-06T18:54:12.516Z,45.96
2023-10-06T18:56:39.894Z,46.27
2023-10-06T18:59:07.609Z,46.52
2023-10-06T19:01:36.606Z,46.58
2023-10-06T19:23:25.830Z,47.05
2023-10-06T19:25:55.552Z,47.02
2023-10-06T19:28:24.194Z,47.19
2023-10-06T19:30:57.048Z,47.20
2023-10-06T19:33:24.307Z,47.51
2023-10-06T19:35:56.292Z,47.37
2023-10-06T19:38:23.443Z,47.31
2023-10-06T19:40:50.718Z,47.37
2023-10-06T19:43:19.917Z,47.15
2023-10-06T19:45:52.726Z,47.14
2023-10-06T19:48:20.331Z,47.25
2023-10-06T19:50:47.556Z,47.23
2023-10-06T19:53:14.997Z,47.14
2023-10-06T19:55:42.700Z,47.19
2023-10-06T19:58:10.361Z,47.55
2023-10-06T20:00:41.287Z,47.06
2023-10-06T20:03:09.080Z,47.33
2023-10-06T20:05:41.096Z,47.48
2023-10-06T20:08:08.697Z,47.48
2023-10-06T20:10:37.199Z,47.35
2023-10-06T20:13:05.603Z,47.15
2023-10-06T20:15:33.494Z,47.61
2023-10-06T20:18:02.096Z,47.91
2023-10-06T20:20:31.280Z,48.09
2023-10-06T20:22:58.688Z,48.12
2023-10-06T20:25:26.233Z,48.64
2023-10-06T20:27:53.892Z,48.58
2023-10-06T20:30:22.181Z,48.25
2023-10-06T20:32:50.520Z,48.10
2023-10-06T20:35:17.925Z,47.94
2023-10-06T20:37:45.636Z,48.48
2023-10-06T20:40:25.715Z,48.71
2023-10-06T20:42:56.697Z,48.53
2023-10-06T20:45:28.450Z,48.62
2023-10-06T20:47:56.681Z,48.96
2023-10-06T20:50:24.636Z,48.71
2023-10-06T20:52:53.041Z,48.73
2023-10-06T20:55:20.996Z,48.66
2023-10-06T20:57:49.666Z,48.73
2023-10-06T21:00:22.714Z,49.18
2023-10-06T21:02:50.762Z,49.13
2023-10-06T21:05:18.518Z,49.27
2023-10-06T21:07:45.978Z,49.06
2023-10-06T21:10:14.220Z,49.55
2023-10-06T21:12:45.641Z,49.10
2023-10-06T21:15:15.259Z,49.36
2023-10-06T21:17:43.806Z,49.11
2023-10-06T21:20:13.580Z,49.43
2023-10-06T21:22:41.311Z,49.31
2023-10-06T21:25:10.361Z,49.59
2023-10-06T21:27:37.709Z,49.62
2023-10-06T21:30:06.225Z,49.35
2023-10-06T21:32:36.440Z,49.71
2023-10-06T21:35:07.029Z,49.49
2023-10-06T21:37:35.250Z,49.33
2023-10-06T21:40:02.840Z,49.93
2023-10-06T21:42:30.441Z,49.61
2023-10-06T21:44:57.804Z,49.92
2023-10-06T21:47:24.936Z,49.59
2023-10-06T21:49:52.376Z,50.22
2023-10-06T21:52:19.774Z,49.97
2023-10-06T21:54:48.969Z,50.03
2023-10-06T21:57:16.233Z,49.96
2023-10-06T21:59:43.527Z,50.00
2023-10-06T22:02:11.759Z,50.15
2023-10-06T22:04:39.320Z,50.31
2023-10-06T22:07:06.738Z,50.44
2023-10-06T22:09:34.986Z,50.47
2023-10-06T22:12:02.376Z,50.69
2023-10-06T22:14:36.314Z,51.06
2023-10-06T22:17:05.653Z,50.80
2023-10-06T22:19:34.555Z,50.66
2023-10-06T22:22:02.920Z,51.20
2023-10-06T22:24:30.275Z,50.85
2023-10-06T22:26:58.789Z,51.53
2023-10-06T22:29:26.516Z,51.77
2023-10-06T22:31:55.171Z,51.76
2023-10-06T22:34:23.753Z,51.47
2023-10-06T22:36:54.478Z,51.74
2023-10-06T22:39:23.944Z,51.53
2023-10-06T22:41:51.136Z,52.29
2023-10-06T22:44:18.487Z,52.03
2023-10-06T22:46:45.820Z,51.75
2023-10-06T22:49:13.809Z,51.76
2023-10-06T22:51:41.265Z,52.35
2023-10-06T22:54:08.872Z,51.83
2023-10-06T22:56:36.198Z,51.80
2023-10-06T22:59:04.969Z,52.85
2023-10-06T23:01:32.421Z,52.30
2023-10-06T23:03:59.806Z,52.27
2023-10-06T23:06:29.017Z,52.47
2023-10-06T23:08:56.346Z,52.78
2023-10-06T23:11:23.696Z,52.75
2023-10-06T23:13:53.100Z,52.94
2023-10-06T23:16:20.454Z,52.73
2023-10-06T23:18:47.592Z,52.65
2023-10-06T23:21:15.111Z,52.44
2023-10-06T23:23:43.120Z,52.64
2023-10-06T23:26:10.576Z,52.59
2023-10-06T23:28:40.359Z,52.73
2023-10-06T23:31:10.660Z,52.99
2023-10-06T23:33:38.281Z,52.80
2023-10-06T23:36:06.127Z,52.84
2023-10-06T23:38:33.414Z,52.76
2023-10-06T23:41:02.500Z,52.98
2023-10-06T23:43:31.439Z,53.17
2023-10-06T23:45:59.003Z,53.16
2023-10-06T23:48:29.804Z,53.65
2023-10-06T23:51:10.283Z,53.63
2023-10-06T23:53:38.134Z,53.51
2023-10-06T23:56:20.476Z,53.51
2023-10-06T23:58:47.998Z,53.58
